createdAt,value
2017-08-17T00:01:57.410Z,99286.86
2017-08-17T00:04:24.934Z,99282.30
2017-08-17T00:06:52.483Z,99290.00
2017-08-17T00:09:20.000Z,99277.28
2017-08-17T00:11:47.548Z,99281.67
2017-08-17T00:14:15.070Z,99284.12
2017-08-17T00:16:42.643Z,99282.84
2017-08-17T00:19:10.195Z,99286.23
2017-08-17T00:21:37.713Z,99300.00
2017-08-17T00:24:05.264Z,99299.17
2017-08-17T00:26:32.781Z,99307.63
2017-08-17T00:29:00.339Z,99307.95
2017-08-17T00:31:27.878Z,99302.92
2017-08-17T00:33:55.397Z,99303.39
2017-08-17T00:36:22.950Z,99310.44
2017-08-17T00:38:50.581Z,99308.45
2017-08-17T00:41:18.140Z,99312.06
2017-08-17T00:43:45.657Z,99307.42
2017-08-17T00:46:13.214Z,99312.16
2017-08-17T00:48:40.736Z,99303.11
2017-08-17T00:51:08.254Z,99303.16
2017-08-17T00:53:35.809Z,99301.53
2017-08-17T00:56:03.320Z,99309.13
2017-08-17T00:58:30.954Z,99306.82
2017-08-17T01:00:58.470Z,99304.92
2017-08-17T01:03:26.020Z,99295.89
2017-08-17T01:05:53.541Z,99289.83
2017-08-17T01:08:21.063Z,99288.29
2017-08-17T01:10:48.618Z,99292.53
2017-08-17T01:13:16.138Z,99280.47
2017-08-17T01:15:43.685Z,99281.87
2017-08-17T01:18:11.210Z,99267.36
2017-08-17T01:20:38.769Z,99272.92
2017-08-17T01:23:06.283Z,99273.29
2017-08-17T01:25:33.862Z,99272.66
2017-08-17T01:28:01.417Z,99275.09
2017-08-17T01:30:28.934Z,99272.70
2017-08-17T01:32:56.498Z,99274.09
2017-08-17T01:35:24.036Z,99267.45
2017-08-17T01:37:51.611Z,99262.66
2017-08-17T01:40:19.124Z,99269.98
2017-08-17T01:42:46.638Z,99273.12
2017-08-17T01:45:14.189Z,99266.60
2017-08-17T01:47:41.738Z,99269.58
2017-08-17T01:50:09.313Z,99265.74
2017-08-17T01:52:36.862Z,99256.11
2017-08-17T01:55:04.445Z,99259.72
2017-08-17T01:57:31.969Z,99265.47
2017-08-17T01:59:59.487Z,99264.47
2017-08-17T02:02:27.054Z,99259.32
2017-08-17T02:04:54.581Z,99269.54
2017-08-17T02:07:22.140Z,99263.25
2017-08-17T02:09:49.695Z,99258.83
2017-08-17T02:12:17.257Z,99255.89
2017-08-17T02:14:44.798Z,99262.03
2017-08-17T02:17:12.315Z,99254.81
2017-08-17T02:19:39.877Z,99255.89
2017-08-17T02:22:07.406Z,99253.41
2017-08-17T02:24:34.953Z,99248.56
2017-08-17T02:27:02.494Z,99250.47
2017-08-17T02:29:30.061Z,99253.99
2017-08-17T02:31:57.574Z,99259.45
2017-08-17T02:34:25.106Z,99257.25
2017-08-17T02:36:52.665Z,99254.23
2017-08-17T02:39:20.184Z,99251.02
2017-08-17T02:41:47.747Z,99254.64
2017-08-17T02:44:15.371Z,99243.42
2017-08-17T02:46:43.194Z,99240.63
2017-08-17T02:49:10.750Z,99237.15
2017-08-17T02:51:38.259Z,99235.75
2017-08-17T02:54:05.821Z,99242.88
2017-08-17T02:56:33.338Z,99240.86
2017-08-17T02:59:00.860Z,99242.70
2017-08-17T03:01:28.421Z,99244.38
2017-08-17T03:03:55.949Z,99240.49
2017-08-17T03:06:23.530Z,99237.55
2017-08-17T03:08:51.037Z,99235.07
2017-08-17T03:11:18.549Z,99235.38
2017-08-17T03:13:47.036Z,99233.25
2017-08-17T03:16:14.558Z,99232.53
2017-08-17T03:18:42.170Z,99232.71
2017-08-17T03:21:09.709Z,99234.52
2017-08-17T03:23:37.294Z,99229.88
2017-08-17T03:26:04.817Z,99232.17
2017-08-17T03:28:32.357Z,99240.98
2017-08-17T03:30:59.924Z,99251.14
2017-08-17T03:33:27.463Z,99245.71
2017-08-17T03:35:55.029Z,99247.61
2017-08-17T03:38:22.562Z,99238.81
2017-08-17T03:40:50.116Z,99234.69
2017-08-17T03:43:17.647Z,99234.47
2017-08-17T03:45:45.172Z,99229.77
2017-08-17T03:48:12.731Z,99236.05
2017-08-17T03:50:40.246Z,99235.14
2017-08-17T03:53:07.797Z,99239.52
2017-08-17T03:55:35.328Z,99232.28
2017-08-17T03:58:02.921Z,99236.09
2017-08-17T04:00:30.477Z,99237.86
2017-08-17T04:02:57.999Z,99232.02
2017-08-17T04:05:25.552Z,99239.62
2017-08-17T04:07:53.079Z,99238.89
2017-08-17T04:10:20.650Z,99251.25
2017-08-17T04:12:48.177Z,99261.42
2017-08-17T04:15:15.694Z,99263.14
2017-08-17T04:17:43.243Z,99272.56
2017-08-17T04:20:10.856Z,99264.61
2017-08-17T04:22:38.408Z,99263.53
2017-08-17T04:25:05.918Z,99262.88
2017-08-17T04:27:33.482Z,99259.83
2017-08-17T04:30:00.997Z,99266.98
2017-08-17T04:32:28.515Z,99271.47
2017-08-17T04:34:56.079Z,99269.70
2017-08-17T04:37:23.594Z,99267.20
2017-08-17T04:39:51.158Z,99277.23
2017-08-17T04:42:18.675Z,99276.65
2017-08-17T04:44:46.349Z,99278.81
2017-08-17T04:47:13.870Z,99281.89
2017-08-17T04:49:41.385Z,99278.81
2017-08-17T04:52:12.304Z,99279.22
2017-08-17T04:54:39.833Z,99279.72
2017-08-17T04:57:24.758Z,99282.55
2017-08-17T04:59:52.283Z,99277.35
2017-08-17T05:02:20.691Z,99274.02
2017-08-17T05:04:48.228Z,99276.91
2017-08-17T05:07:15.763Z,99288.84
2017-08-17T05:09:43.314Z,99293.08
2017-08-17T05:12:10.834Z,99299.68
2017-08-17T05:14:38.386Z,99300.76
2017-08-17T05:17:05.914Z,99299.32
2017-08-17T05:19:33.587Z,99292.04
2017-08-17T05:22:01.108Z,99292.55
2017-08-17T05:24:28.708Z,99296.88
2017-08-17T05:26:56.266Z,99290.10
2017-08-17T05:29:23.792Z,99292.41
2017-08-17T05:31:51.364Z,99289.20
2017-08-17T05:34:18.882Z,99291.52
2017-08-17T05:36:46.396Z,99280.84
2017-08-17T05:39:13.943Z,99288.26
2017-08-17T05:41:41.462Z,99292.23
2017-08-17T05:44:09.042Z,99292.69
2017-08-17T05:46:36.557Z,99300.02
2017-08-17T05:49:04.073Z,99300.69
2017-08-17T05:51:31.627Z,99293.64
2017-08-17T05:53:59.150Z,99296.66
2017-08-17T05:56:26.722Z,99294.55
2017-08-17T05:58:54.248Z,99295.67
2017-08-17T06:01:21.771Z,99291.05
2017-08-17T06:03:49.317Z,99300.23
2017-08-17T06:06:16.833Z,99307.95
2017-08-17T06:08:44.380Z,99306.92
2017-08-17T06:11:11.906Z,99312.97
2017-08-17T06:13:39.470Z,99299.83
2017-08-17T06:16:06.989Z,99308.78
2017-08-17T06:18:34.504Z,99305.16
2017-08-17T06:21:02.057Z,99308.92
2017-08-17T06:23:29.581Z,99302.80
2017-08-17T06:25:57.134Z,99288.16
2017-08-17T06:28:24.650Z,99287.17
2017-08-17T06:30:52.207Z,99293.31
2017-08-17T06:33:19.724Z,99299.64
2017-08-17T06:35:47.237Z,99301.14
2017-08-17T06:38:14.791Z,99292.36
2017-08-17T06:40:42.312Z,99289.20
2017-08-17T06:43:09.893Z,99299.36
2017-08-17T06:45:37.531Z,99289.88
2017-08-17T06:48:05.085Z,99293.81
2017-08-17T06:50:32.631Z,99295.84
2017-08-17T06:53:01.778Z,99289.70
2017-08-17T06:55:30.352Z,99287.89
2017-08-17T06:57:59.055Z,99294.08
2017-08-17T07:00:27.670Z,99290.92
2017-08-17T07:02:56.444Z,99287.80
2017-08-17T07:05:25.019Z,99281.73
2017-08-17T07:07:53.194Z,99294.53
2017-08-17T07:10:22.278Z,99292.13
2017-08-17T07:12:51.361Z,99285.31
2017-08-17T07:15:20.359Z,99283.69
2017-08-17T07:17:49.267Z,99284.77
2017-08-17T07:20:18.234Z,99286.40
2017-08-17T07:22:46.224Z,99290.61
2017-08-17T07:25:15.360Z,99294.86
2017-08-17T07:27:44.185Z,99301.04
2017-08-17T07:30:13.179Z,99306.70
2017-08-17T07:32:42.246Z,99308.50
2017-08-17T07:35:10.084Z,99312.53
2017-08-17T07:37:39.067Z,99315.78
2017-08-17T07:40:07.122Z,99314.11
2017-08-17T07:42:35.901Z,99315.23
2017-08-17T07:45:03.762Z,99308.59
2017-08-17T07:47:32.206Z,99291.14
2017-08-17T07:50:00.745Z,99300.45
2017-08-17T07:52:29.722Z,99297.88
2017-08-17T07:54:58.882Z,99288.97
2017-08-17T07:57:27.325Z,99290.70
2017-08-17T07:59:56.186Z,99286.36
2017-08-17T08:02:25.154Z,99278.16
2017-08-17T08:04:53.444Z,99284.13
2017-08-17T08:07:22.039Z,99281.25
2017-08-17T08:09:50.518Z,99287.39
2017-08-17T08:12:19.276Z,99290.75
2017-08-17T08:14:48.123Z,99299.01
2017-08-17T08:17:15.674Z,99288.61
2017-08-17T08:19:43.188Z,99301.72
2017-08-17T08:22:10.780Z,99298.24
2017-08-17T08:24:38.300Z,99308.36
2017-08-17T08:27:05.817Z,99309.00
2017-08-17T08:29:33.366Z,99311.45
2017-08-17T08:32:00.879Z,99315.23
2017-08-17T08:34:29.615Z,99313.34
2017-08-17T08:36:58.082Z,99314.70
2017-08-17T08:39:27.147Z,99311.12
2017-08-17T08:41:55.895Z,99311.45
2017-08-17T08:44:24.924Z,99311.12
2017-08-17T08:46:53.794Z,99313.30
2017-08-17T08:49:22.573Z,99305.97
2017-08-17T08:51:50.960Z,99307.97
2017-08-17T08:54:20.217Z,99300.55
2017-08-17T08:56:49.305Z,99307.42
2017-08-17T08:59:18.116Z,99305.38
2017-08-17T09:01:46.863Z,99310.54
2017-08-17T09:04:15.727Z,99309.27
2017-08-17T09:06:44.694Z,99310.09
2017-08-17T09:09:12.583Z,99306.83
2017-08-17T09:11:41.494Z,99314.30
2017-08-17T09:14:10.157Z,99305.88
2017-08-17T09:16:39.092Z,99304.02
2017-08-17T09:19:07.787Z,99303.98
2017-08-17T09:21:36.769Z,99297.84
2017-08-17T09:24:05.321Z,99299.19
2017-08-17T09:26:32.870Z,99299.19
2017-08-17T09:29:00.485Z,99283.86
2017-08-17T09:31:28.077Z,99290.10
2017-08-17T09:33:55.635Z,99294.44
2017-08-17T09:36:23.200Z,99285.89
2017-08-17T09:38:50.751Z,99281.47
2017-08-17T09:41:18.270Z,99277.70
2017-08-17T09:43:45.877Z,99275.14
2017-08-17T09:46:13.434Z,99264.28
2017-08-17T09:48:40.976Z,99272.55
2017-08-17T09:51:08.516Z,99265.09
2017-08-17T09:53:36.033Z,99267.53
2017-08-17T09:56:03.627Z,99259.08
2017-08-17T09:58:31.185Z,99254.59
2017-08-17T10:00:58.761Z,99254.45
2017-08-17T10:03:26.277Z,99253.65
2017-08-17T10:05:53.792Z,99249.67
2017-08-17T10:08:21.344Z,99249.44
2017-08-17T10:10:48.866Z,99250.25
2017-08-17T10:13:16.422Z,99246.60
2017-08-17T10:15:43.950Z,99253.05
2017-08-17T10:18:11.501Z,99243.20
2017-08-17T10:20:39.021Z,99247.89
2017-08-17T10:23:06.542Z,99246.36
2017-08-17T10:25:34.093Z,99248.53
2017-08-17T10:28:01.610Z,99240.80
2017-08-17T10:30:29.166Z,99244.01
2017-08-17T10:32:56.708Z,99240.17
2017-08-17T10:35:24.269Z,99243.23
2017-08-17T10:37:51.788Z,99249.30
2017-08-17T10:40:19.307Z,99251.15
2017-08-17T10:42:46.859Z,99246.98
2017-08-17T10:45:14.377Z,99247.53
2017-08-17T10:47:41.947Z,99244.27
2017-08-17T10:50:09.460Z,99230.56
2017-08-17T10:52:37.026Z,99241.30
2017-08-17T10:55:04.544Z,99232.88
2017-08-17T10:57:32.062Z,99234.73
2017-08-17T10:59:59.606Z,99231.66
2017-08-17T11:02:27.122Z,99230.11
2017-08-17T11:04:54.672Z,99225.17
2017-08-17T11:07:22.284Z,99234.67
2017-08-17T11:09:49.846Z,99230.56
2017-08-17T11:12:17.369Z,99236.80
2017-08-17T11:14:44.885Z,99238.15
2017-08-17T11:17:12.438Z,99244.30
2017-08-17T11:19:39.953Z,99235.70
2017-08-17T11:22:07.541Z,99228.25
2017-08-17T11:24:35.061Z,99224.17
2017-08-17T11:27:02.651Z,99224.84
2017-08-17T11:29:30.194Z,99223.58
2017-08-17T11:31:57.781Z,99223.58
2017-08-17T11:34:25.332Z,99222.63
2017-08-17T11:36:52.900Z,99217.70
2017-08-17T11:39:20.458Z,99220.12
2017-08-17T11:41:47.977Z,99225.84
2017-08-17T11:44:15.550Z,99221.22
2017-08-17T11:46:43.064Z,99222.52
2017-08-17T11:49:10.581Z,99220.08
2017-08-17T11:51:38.158Z,99217.22
2017-08-17T11:54:05.676Z,99213.03
2017-08-17T11:56:33.276Z,99199.98
2017-08-17T11:59:00.836Z,99198.45
2017-08-17T12:01:28.349Z,99190.97
2017-08-17T12:03:55.901Z,99189.62
2017-08-17T12:06:23.516Z,99197.99
2017-08-17T12:08:51.073Z,99202.23
2017-08-17T12:11:18.636Z,99189.70
2017-08-17T12:13:46.156Z,99187.95
2017-08-17T12:16:13.709Z,99189.59
2017-08-17T12:18:41.315Z,99183.33
2017-08-17T12:21:08.938Z,99181.54
2017-08-17T12:23:36.531Z,99181.72
2017-08-17T12:26:04.098Z,99179.41
2017-08-17T12:28:31.656Z,99177.37
2017-08-17T12:30:59.173Z,99172.70
2017-08-17T12:33:26.733Z,99180.13
2017-08-17T12:35:54.245Z,99175.28
2017-08-17T12:38:21.791Z,99180.53
2017-08-17T12:40:49.352Z,99174.55
2017-08-17T12:43:16.917Z,99167.22
2017-08-17T12:45:44.473Z,99174.41
2017-08-17T12:48:12.151Z,99177.63
2017-08-17T12:50:39.706Z,99172.34
2017-08-17T12:53:07.217Z,99173.00
2017-08-17T12:55:34.787Z,99157.81
2017-08-17T12:58:02.313Z,99163.50
2017-08-17T13:00:29.877Z,99171.09
2017-08-17T13:02:57.393Z,99164.17
2017-08-17T13:05:24.950Z,99167.25
2017-08-17T13:07:52.510Z,99162.23
2017-08-17T13:10:20.028Z,99160.88
2017-08-17T13:12:47.575Z,99156.40
2017-08-17T13:15:15.104Z,99150.27
2017-08-17T13:17:42.722Z,99146.20
2017-08-17T13:20:10.240Z,99142.80
2017-08-17T13:22:37.750Z,99137.91
2017-08-17T13:25:05.328Z,99138.41
2017-08-17T13:27:32.854Z,99134.94
2017-08-17T13:30:00.455Z,99141.27
2017-08-17T13:32:27.980Z,99142.80
2017-08-17T13:34:55.505Z,99154.00
2017-08-17T13:37:23.048Z,99147.50
2017-08-17T13:39:50.587Z,99148.80
2017-08-17T13:42:18.165Z,99145.14
2017-08-17T13:44:45.683Z,99138.49
2017-08-17T13:47:13.202Z,99140.52
2017-08-17T13:49:40.756Z,99142.54
2017-08-17T13:52:08.270Z,99141.33
2017-08-17T13:54:35.844Z,99137.89
2017-08-17T13:57:03.361Z,99141.00
2017-08-17T13:59:30.967Z,99143.72
2017-08-17T14:01:58.524Z,99139.50
2017-08-17T14:04:26.048Z,99135.29
2017-08-17T14:06:53.643Z,99136.09
2017-08-17T14:09:21.176Z,99130.41
2017-08-17T14:11:48.701Z,99136.88
2017-08-17T14:14:16.252Z,99130.90
2017-08-17T14:16:43.767Z,99130.90
2017-08-17T14:19:11.316Z,99130.61
2017-08-17T14:21:38.830Z,99130.75
2017-08-17T14:24:06.460Z,99123.30
2017-08-17T14:26:33.978Z,99126.28
2017-08-17T14:29:01.493Z,99127.09
2017-08-17T14:31:29.053Z,99121.51
2017-08-17T14:33:56.600Z,99131.65
2017-08-17T14:36:24.161Z,99135.58
2017-08-17T14:38:53.717Z,99131.36
2017-08-17T14:41:21.280Z,99132.31
2017-08-17T14:43:48.804Z,99131.19
2017-08-17T14:46:16.319Z,99132.40
2017-08-17T14:48:43.870Z,99134.16
2017-08-17T14:51:11.389Z,99128.73
2017-08-17T14:53:38.936Z,99127.23
2017-08-17T14:56:06.477Z,99134.25
2017-08-17T14:58:34.027Z,99133.06
2017-08-17T15:01:01.545Z,99134.10
2017-08-17T15:03:29.062Z,99135.05
2017-08-17T15:05:56.613Z,99139.80
2017-08-17T15:08:24.138Z,99139.53
2017-08-17T15:10:51.685Z,99138.84
2017-08-17T15:13:19.273Z,99140.75
2017-08-17T15:15:46.847Z,99142.51
2017-08-17T15:18:14.368Z,99132.45
2017-08-17T15:20:41.884Z,99138.67
2017-08-17T15:23:09.444Z,99142.34
2017-08-17T15:25:36.960Z,99132.45
2017-08-17T15:28:04.520Z,99131.33
2017-08-17T15:30:32.047Z,99137.97
2017-08-17T15:32:59.624Z,99125.27
2017-08-17T15:35:27.153Z,99134.45
2017-08-17T15:37:54.673Z,99129.83
2017-08-17T15:40:22.226Z,99137.25
2017-08-17T15:42:49.742Z,99134.16
2017-08-17T15:45:17.318Z,99135.89
2017-08-17T15:47:44.833Z,99135.66
2017-08-17T15:50:12.345Z,99136.70
2017-08-17T15:52:39.893Z,99141.59
2017-08-17T15:55:07.412Z,99137.36
2017-08-17T15:57:34.969Z,99141.84
2017-08-17T16:00:02.484Z,99142.80
2017-08-17T16:02:30.051Z,99141.67
2017-08-17T16:04:57.567Z,99140.89
2017-08-17T16:07:25.081Z,99144.16
2017-08-17T16:09:52.631Z,99145.74
2017-08-17T16:12:20.150Z,99145.74
2017-08-17T16:14:47.698Z,99147.50
2017-08-17T16:17:15.213Z,99152.39
2017-08-17T16:19:42.786Z,99153.20
2017-08-17T16:22:10.298Z,99158.23
2017-08-17T16:24:37.818Z,99158.89
2017-08-17T16:27:05.386Z,99142.02
2017-08-17T16:29:32.908Z,99147.63
2017-08-17T16:32:00.496Z,99150.34
2017-08-17T16:34:28.018Z,99153.86
2017-08-17T16:36:55.534Z,99148.03
2017-08-17T16:39:23.082Z,99141.23
2017-08-17T16:41:50.607Z,99140.37
2017-08-17T16:44:18.201Z,99140.77
2017-08-17T16:46:45.741Z,99140.92
2017-08-17T16:49:13.257Z,99144.99
2017-08-17T16:51:40.801Z,99142.68
2017-08-17T16:54:08.318Z,99141.73
2017-08-17T16:56:35.865Z,99136.15
2017-08-17T16:59:03.381Z,99139.09
2017-08-17T17:01:30.949Z,99145.88
2017-08-17T17:03:58.473Z,99150.77
2017-08-17T17:06:25.994Z,99149.41
2017-08-17T17:08:53.553Z,99141.98
2017-08-17T17:11:21.080Z,99139.27
2017-08-17T17:13:48.621Z,99138.41
2017-08-17T17:16:16.143Z,99125.52
2017-08-17T17:18:43.729Z,99124.41
2017-08-17T17:21:11.248Z,99127.13
2017-08-17T17:23:38.764Z,99116.41
2017-08-17T17:26:06.349Z,99126.17
2017-08-17T17:28:33.857Z,99130.11
2017-08-17T17:31:01.408Z,99123.06
2017-08-17T17:33:29.226Z,99124.67
2017-08-17T17:35:56.778Z,99117.70
2017-08-17T17:38:24.292Z,99116.93
2017-08-17T17:40:51.801Z,99124.91
2017-08-17T17:43:19.350Z,99127.97
2017-08-17T17:45:46.876Z,99126.80
2017-08-17T17:48:14.606Z,99129.86
2017-08-17T17:50:43.474Z,99130.35
2017-08-17T17:53:11.461Z,99135.43
2017-08-17T17:55:40.160Z,99133.93
2017-08-17T17:58:07.788Z,99135.62
2017-08-17T18:00:35.346Z,99133.83
2017-08-17T18:03:02.866Z,99136.15
2017-08-17T18:05:30.593Z,99150.69
2017-08-17T18:07:58.103Z,99146.47
2017-08-17T18:10:25.620Z,99150.25
2017-08-17T18:12:53.175Z,99141.44
2017-08-17T18:15:20.698Z,99131.05
2017-08-17T18:17:48.271Z,99132.61
2017-08-17T18:20:15.807Z,99134.78
2017-08-17T18:22:43.330Z,99130.03
2017-08-17T18:25:10.886Z,99134.26
2017-08-17T18:27:38.411Z,99130.44
2017-08-17T18:30:05.955Z,99129.14
2017-08-17T18:32:33.482Z,99130.25
2017-08-17T18:35:01.055Z,99126.64
2017-08-17T18:37:28.579Z,99135.19
2017-08-17T18:39:56.094Z,99135.74
2017-08-17T18:42:23.651Z,99133.87
2017-08-17T18:44:51.194Z,99137.10
2017-08-17T18:47:18.739Z,99145.66
2017-08-17T18:49:46.260Z,99136.78
2017-08-17T18:52:13.812Z,99135.19
2017-08-17T18:54:41.330Z,99131.95
2017-08-17T18:57:08.901Z,99128.52
2017-08-17T18:59:36.425Z,99130.60
2017-08-17T19:02:03.944Z,99130.02
2017-08-17T19:04:31.486Z,99126.52
2017-08-17T19:06:59.015Z,99124.91
2017-08-17T19:09:26.561Z,99119.06
2017-08-17T19:11:54.079Z,99132.07
2017-08-17T19:14:21.639Z,99129.88
2017-08-17T19:16:49.161Z,99124.73
2017-08-17T19:19:16.677Z,99127.53
2017-08-17T19:21:44.237Z,99121.55
2017-08-17T19:24:11.765Z,99129.95
2017-08-17T19:26:39.321Z,99134.26
2017-08-17T19:29:06.840Z,99139.84
2017-08-17T19:31:34.485Z,99133.45
2017-08-17T19:34:02.545Z,99136.84
2017-08-17T19:36:30.505Z,99140.09
2017-08-17T19:38:58.361Z,99129.03
2017-08-17T19:41:26.490Z,99129.10
2017-08-17T19:43:54.745Z,99134.31
2017-08-17T19:46:22.779Z,99132.84
2017-08-17T19:48:50.581Z,99140.78
2017-08-17T19:51:18.534Z,99141.04
2017-08-17T19:53:46.504Z,99140.59
2017-08-17T19:56:15.040Z,99139.70
2017-08-17T19:58:42.627Z,99147.91
2017-08-17T20:01:10.176Z,99152.65
2017-08-17T20:03:37.705Z,99151.17
2017-08-17T20:06:05.278Z,99149.63
2017-08-17T20:08:32.797Z,99144.13
2017-08-17T20:11:00.315Z,99148.94
2017-08-17T20:13:27.865Z,99141.77
2017-08-17T20:15:55.384Z,99133.67
2017-08-17T20:18:22.941Z,99136.30
2017-08-17T20:20:50.460Z,99143.50
2017-08-17T20:23:18.013Z,99144.05
2017-08-17T20:25:45.794Z,99148.78
2017-08-17T20:28:13.386Z,99157.68
2017-08-17T20:30:41.031Z,99162.33
2017-08-17T20:33:09.111Z,99154.84
2017-08-17T20:35:37.680Z,99153.48
2017-08-17T20:38:05.552Z,99150.23
2017-08-17T20:40:33.834Z,99150.95
2017-08-17T20:43:01.410Z,99148.80
2017-08-17T20:45:29.615Z,99150.34
2017-08-17T20:47:57.736Z,99145.69
2017-08-17T20:50:25.909Z,99149.55
2017-08-17T20:52:53.504Z,99147.70
2017-08-17T20:55:21.542Z,99157.08
2017-08-17T20:57:49.112Z,99163.89
2017-08-17T21:02:51.465Z,99159.98
2017-08-17T21:05:19.155Z,99157.70
2017-08-17T21:07:46.919Z,99156.34
2017-08-17T21:10:14.811Z,99161.70
2017-08-17T21:12:43.021Z,99163.14
2017-08-17T21:15:11.009Z,99164.00
2017-08-17T21:17:38.799Z,99164.89
2017-08-17T21:20:06.404Z,99167.22
2017-08-17T21:22:34.117Z,99168.03
2017-08-17T21:25:01.816Z,99169.93
2017-08-17T21:27:29.637Z,99168.78
2017-08-17T21:29:57.455Z,99175.34
2017-08-17T21:32:25.468Z,99176.62
2017-08-17T21:34:55.246Z,99179.05
2017-08-17T21:37:23.828Z,99180.27
2017-08-17T21:39:51.376Z,99179.43
2017-08-17T21:42:18.909Z,99181.40
2017-08-17T21:44:46.473Z,99177.41
2017-08-17T21:47:14.068Z,99175.70
2017-08-17T21:49:41.621Z,99178.08
2017-08-17T21:52:09.137Z,99181.40
2017-08-17T21:54:36.706Z,99184.09
2017-08-17T21:57:04.234Z,99182.88
2017-08-17T21:59:31.750Z,99175.97
2017-08-17T22:01:59.312Z,99186.05
2017-08-17T22:04:26.834Z,99184.46
2017-08-17T22:06:54.384Z,99186.23
2017-08-17T22:09:21.906Z,99187.81
2017-08-17T22:11:49.564Z,99188.48
2017-08-17T22:14:17.086Z,99182.98
2017-08-17T22:16:44.682Z,99186.16
2017-08-17T22:19:12.276Z,99186.55
2017-08-17T22:21:39.794Z,99184.44
2017-08-17T22:24:07.355Z,99192.44
2017-08-17T22:26:34.949Z,99192.81
2017-08-17T22:29:02.508Z,99184.48
2017-08-17T22:31:30.023Z,99181.72
2017-08-17T22:33:57.593Z,99175.94
2017-08-17T22:36:25.210Z,99178.66
2017-08-17T22:38:52.738Z,99175.81
2017-08-17T22:41:20.334Z,99177.00
2017-08-17T22:43:47.888Z,99178.13
2017-08-17T22:46:15.449Z,99184.87
2017-08-17T22:48:42.961Z,99179.33
2017-08-17T22:51:10.526Z,99179.13
2017-08-17T22:53:38.041Z,99170.98
2017-08-17T22:56:05.558Z,99175.61
2017-08-17T22:58:33.121Z,99170.18
2017-08-17T23:01:00.647Z,99167.52
2017-08-17T23:03:28.201Z,99162.34
2017-08-17T23:05:55.724Z,99158.33
2017-08-17T23:08:23.276Z,99166.22
2017-08-17T23:10:50.792Z,99159.52
2017-08-17T23:13:18.333Z,99157.20
2017-08-17T23:15:45.880Z,99156.20
2017-08-17T23:18:13.405Z,99167.43
2017-08-17T23:20:40.974Z,99163.30
2017-08-17T23:23:08.512Z,99171.38
2017-08-17T23:25:36.078Z,99167.72
2017-08-17T23:28:03.593Z,99170.55
2017-08-17T23:30:31.125Z,99167.92
2017-08-17T23:32:58.681Z,99174.71
2017-08-17T23:35:26.239Z,99169.28
2017-08-17T23:37:53.802Z,99165.27
2017-08-17T23:40:21.318Z,99163.30
2017-08-17T23:42:48.850Z,99159.77
2017-08-17T23:45:16.408Z,99161.48
2017-08-17T23:47:43.932Z,99156.40
2017-08-17T23:50:11.495Z,99147.97
2017-08-17T23:52:39.009Z,99150.59
2017-08-17T23:55:06.573Z,99146.95
2017-08-17T23:57:34.110Z,99141.70
